createdAt,value
2019-04-01T00:00:51.550Z,5.17
2019-04-01T00:03:59.273Z,5.57
2019-04-01T00:07:06.345Z,5.40
2019-04-01T00:10:13.605Z,5.07
2019-04-01T00:13:21.314Z,5.20
2019-04-01T00:16:28.486Z,5.10
2019-04-01T00:19:35.479Z,5.10
2019-04-01T00:22:42.838Z,4.87
2019-04-01T00:25:49.795Z,5.40
2019-04-01T00:28:56.930Z,5.30
2019-04-01T00:32:04.097Z,5.70
2019-04-01T00:35:12.213Z,5.83
2019-04-01T00:41:25.424Z,4.90
2019-04-01T00:47:39.285Z,5.10
2019-04-01T00:50:46.304Z,5.50
2019-04-01T00:53:53.318Z,5.80
2019-04-01T00:57:00.600Z,4.77
2019-04-01T01:00:08.844Z,5.30
2019-04-01T01:03:16.333Z,5.87
2019-04-01T01:06:24.286Z,5.43
2019-04-01T01:09:31.546Z,5.70
2019-04-01T01:12:40.407Z,5.27
2019-04-01T01:15:47.369Z,5.50
2019-04-01T01:18:54.288Z,5.23
2019-04-01T01:22:01.326Z,5.90
2019-04-01T01:25:08.316Z,5.50
2019-04-01T01:31:22.093Z,5.60
2019-04-01T01:34:29.360Z,4.77
2019-04-01T01:40:43.040Z,5.43
2019-04-01T01:43:51.738Z,5.57
2019-04-01T01:46:59.950Z,4.77
2019-04-01T01:50:08.582Z,4.47
2019-04-01T01:53:15.607Z,5.37
2019-04-01T01:56:22.573Z,4.80
2019-04-01T01:59:30.068Z,4.77
2019-04-01T02:02:36.960Z,4.80
2019-04-01T02:05:43.946Z,4.70
2019-04-01T02:08:50.989Z,4.77
2019-04-01T02:11:58.492Z,5.13
2019-04-01T02:18:14.280Z,5.10
2019-04-01T02:21:21.810Z,5.57
2019-04-01T02:24:29.322Z,5.30
2019-04-01T02:27:36.838Z,5.10
2019-04-01T02:30:44.268Z,5.27
2019-04-01T02:33:51.556Z,4.90
2019-04-01T02:36:58.722Z,4.77
2019-04-01T02:40:07.568Z,5.10
2019-04-01T02:43:16.310Z,4.40
2019-04-01T02:46:25.264Z,4.50
2019-04-01T02:49:32.334Z,4.90
2019-04-01T02:55:46.290Z,4.10
2019-04-01T02:58:53.354Z,4.30
2019-04-01T03:02:00.439Z,4.93
2019-04-01T03:05:08.281Z,3.97
2019-04-01T03:08:15.261Z,5.00
2019-04-01T03:11:22.377Z,3.50
2019-04-01T03:17:35.696Z,3.87
2019-04-01T03:20:42.848Z,4.47
2019-04-01T03:23:50.315Z,4.43
2019-04-01T03:26:58.059Z,4.40
2019-04-01T03:30:05.814Z,4.23
2019-04-01T03:33:12.925Z,4.10
2019-04-01T03:36:20.602Z,3.27
2019-04-01T03:39:27.726Z,3.97
2019-04-01T03:42:35.548Z,4.33
2019-04-01T03:45:43.132Z,4.20
2019-04-01T03:48:50.258Z,4.53
2019-04-01T03:51:57.434Z,3.83
2019-04-01T03:58:11.252Z,4.27
2019-04-01T04:01:18.469Z,3.63
2019-04-01T04:04:25.738Z,3.77
2019-04-01T04:07:33.100Z,3.57
2019-04-01T04:10:41.309Z,3.73
2019-04-01T04:13:48.685Z,4.53
2019-04-01T04:16:55.630Z,3.80
2019-04-01T04:20:02.756Z,4.17
2019-04-01T04:23:09.837Z,3.70
2019-04-01T04:26:16.970Z,4.27
2019-04-01T04:29:24.364Z,4.20
2019-04-01T04:32:31.348Z,4.40
2019-04-01T04:38:44.315Z,3.45
2019-04-01T04:41:51.655Z,3.80
2019-04-01T04:48:07.560Z,3.73
2019-04-01T04:51:15.279Z,3.73
2019-04-01T04:54:22.997Z,3.53
2019-04-01T04:57:31.639Z,3.70
2019-04-01T05:00:38.884Z,3.27
2019-04-01T05:03:46.297Z,3.50
2019-04-01T05:06:53.403Z,3.50
2019-04-01T05:10:01.979Z,3.37
2019-04-01T05:13:09.278Z,3.03
2019-04-01T05:16:16.833Z,2.83
2019-04-01T05:19:24.295Z,3.30
2019-04-01T05:22:32.207Z,2.90
2019-04-01T05:25:39.378Z,2.73
2019-04-01T05:28:46.933Z,4.00
2019-04-01T05:31:53.903Z,3.03
2019-04-01T05:35:01.440Z,3.93
2019-04-01T05:41:16.400Z,3.00
2019-04-01T05:50:37.268Z,3.50
2019-04-01T05:53:44.453Z,4.67
2019-04-01T05:56:52.305Z,5.45
2019-04-01T05:59:59.752Z,6.53
2019-04-01T06:03:06.889Z,7.10
2019-04-01T06:06:15.283Z,4.93
2019-04-01T06:09:22.417Z,3.37
2019-04-01T06:12:29.777Z,3.07
2019-04-01T06:15:37.641Z,2.63
2019-04-01T06:18:44.753Z,1.87
2019-04-01T06:21:51.878Z,3.10
2019-04-01T06:24:59.263Z,4.87
2019-04-01T06:28:06.317Z,5.57
2019-04-01T06:31:13.869Z,5.10
2019-04-01T06:34:21.265Z,5.30
2019-04-01T06:37:28.548Z,5.83
2019-04-01T06:40:36.000Z,4.10
2019-04-01T06:43:43.250Z,3.30
2019-04-01T06:46:50.282Z,2.77
2019-04-01T06:49:59.609Z,2.37
2019-04-01T06:53:06.922Z,2.47
2019-04-01T06:56:14.289Z,2.40
2019-04-01T06:59:22.945Z,2.47
2019-04-01T07:02:31.266Z,2.50
2019-04-01T07:05:38.719Z,2.43
2019-04-01T07:08:45.696Z,2.17
2019-04-01T07:11:53.389Z,3.13
2019-04-01T07:15:01.751Z,2.50
2019-04-01T07:18:09.304Z,2.87
2019-04-01T07:24:23.491Z,2.47
2019-04-01T07:27:31.642Z,3.20
2019-04-01T07:30:41.764Z,2.60
2019-04-01T07:33:48.451Z,2.73
2019-04-01T07:36:55.427Z,2.50
2019-04-01T07:40:02.890Z,2.80
2019-04-01T07:43:14.736Z,3.73
2019-04-01T07:46:20.369Z,2.63
2019-04-01T07:49:27.440Z,2.80
2019-04-01T07:52:34.446Z,2.80
2019-04-01T07:55:42.250Z,2.97
2019-04-01T07:58:49.691Z,2.70
2019-04-01T08:01:57.259Z,3.03
2019-04-01T08:05:04.801Z,3.50
2019-04-01T08:08:12.783Z,3.20
2019-04-01T08:11:20.032Z,2.90
2019-04-01T08:14:27.256Z,3.17
2019-04-01T08:17:34.638Z,2.93
2019-04-01T08:20:41.677Z,3.40
2019-04-01T08:23:48.945Z,3.00
2019-04-01T08:26:56.277Z,3.13
2019-04-01T08:30:05.367Z,2.50
2019-04-01T08:36:18.734Z,2.97
2019-04-01T08:39:27.256Z,2.83
2019-04-01T08:42:34.263Z,2.97
2019-04-01T08:45:41.283Z,2.83
2019-04-01T08:48:48.630Z,2.83
2019-04-01T08:51:55.864Z,3.10
2019-04-01T08:55:05.241Z,3.33
2019-04-01T08:58:12.567Z,2.07
2019-04-01T09:01:34.246Z,3.40
2019-04-01T09:04:28.731Z,4.23
2019-04-01T09:07:35.866Z,2.50
2019-04-01T09:10:43.965Z,3.70
2019-04-01T09:13:51.702Z,3.10
2019-04-01T09:16:59.127Z,3.10
2019-04-01T09:20:07.313Z,2.53
2019-04-01T09:23:14.969Z,2.77
2019-04-01T09:26:21.976Z,1.43
2019-04-01T09:29:29.270Z,2.67
2019-04-01T09:32:36.370Z,3.57
2019-04-01T09:38:49.760Z,2.90
2019-04-01T09:41:58.255Z,4.77
2019-04-01T09:45:08.279Z,2.87
2019-04-01T09:48:15.415Z,3.60
2019-04-01T09:51:23.301Z,3.27
2019-04-01T09:54:30.410Z,3.87
2019-04-01T10:00:43.426Z,4.10
2019-04-01T10:04:40.717Z,4.47
2019-04-01T10:07:47.596Z,4.57
2019-04-01T10:10:54.685Z,4.50
2019-04-01T10:14:01.945Z,4.80
2019-04-01T10:17:09.463Z,5.30
2019-04-01T10:20:17.313Z,5.20
2019-04-01T10:26:31.364Z,5.37
2019-04-01T10:29:38.866Z,5.47
2019-04-01T10:32:46.359Z,5.37
2019-04-01T10:35:53.882Z,5.73
2019-04-01T10:39:01.653Z,6.47
2019-04-01T10:42:09.957Z,5.57
2019-04-01T10:45:17.555Z,5.70
2019-04-01T10:48:24.642Z,6.13
2019-04-01T10:51:33.055Z,5.93
2019-04-01T10:54:41.010Z,6.50
2019-04-01T10:57:48.436Z,6.20
2019-04-01T11:00:55.435Z,6.20
2019-04-01T11:04:04.459Z,6.80
2019-04-01T11:07:11.927Z,6.77
2019-04-01T11:10:20.251Z,6.33
2019-04-01T11:13:28.052Z,7.70
2019-04-01T11:16:36.537Z,6.37
2019-04-01T11:19:43.694Z,7.17
2019-04-01T11:22:51.263Z,7.90
2019-04-01T11:25:59.320Z,7.73
2019-04-01T11:29:06.892Z,7.00
2019-04-01T11:32:14.210Z,8.03
2019-04-01T11:35:21.549Z,6.87
2019-04-01T11:38:29.578Z,7.17
2019-04-01T11:41:37.493Z,7.20
2019-04-01T11:44:44.985Z,7.63
2019-04-01T11:47:53.334Z,7.33
2019-04-01T11:51:01.407Z,7.53
2019-04-01T11:54:10.051Z,8.73
2019-04-01T11:57:17.760Z,7.70
2019-04-01T12:00:26.255Z,7.47
2019-04-01T12:03:34.137Z,7.70
2019-04-01T12:06:42.022Z,8.30
2019-04-01T12:09:52.254Z,7.20
2019-04-01T12:12:59.915Z,8.07
2019-04-01T12:16:09.258Z,8.17
2019-04-01T12:19:18.191Z,8.63
2019-04-01T12:22:25.972Z,15.20
2019-04-01T12:31:47.355Z,7.77
2019-04-01T12:34:54.909Z,8.07
2019-04-01T12:38:02.345Z,8.57
2019-04-01T12:41:10.088Z,6.83
2019-04-01T12:44:18.501Z,7.07
2019-04-01T12:47:25.809Z,10.73
2019-04-01T12:50:33.246Z,7.23
2019-04-01T12:53:40.751Z,7.93
2019-04-01T12:56:48.258Z,8.17
2019-04-01T12:59:55.647Z,7.40
2019-04-01T13:03:02.967Z,6.00
2019-04-01T13:06:11.440Z,6.33
2019-04-01T13:09:18.924Z,6.27
2019-04-01T13:12:28.918Z,6.20
2019-04-01T13:15:36.281Z,8.50
2019-04-01T13:18:44.367Z,10.20
2019-04-01T13:25:02.401Z,9.80
2019-04-01T13:28:10.103Z,9.67
2019-04-01T13:31:19.317Z,7.80
2019-04-01T13:37:33.839Z,8.67
2019-04-01T13:40:41.764Z,8.20
2019-04-01T13:43:49.974Z,8.33
2019-04-01T13:46:58.445Z,8.37
2019-04-01T13:50:07.413Z,8.07
2019-04-01T13:53:15.339Z,9.50
2019-04-01T13:59:30.110Z,7.40
2019-04-01T14:02:37.413Z,7.90
2019-04-01T14:05:46.252Z,6.93
2019-04-01T14:08:54.333Z,7.50
2019-04-01T14:12:02.324Z,7.67
2019-04-01T14:15:10.277Z,8.33
2019-04-01T14:18:18.526Z,8.87
2019-04-01T14:21:27.725Z,7.90
2019-04-01T14:24:36.053Z,12.77
2019-04-01T14:27:43.509Z,9.23
2019-04-01T14:30:51.471Z,8.30
2019-04-01T14:34:01.293Z,9.50
2019-04-01T14:37:09.910Z,8.77
2019-04-01T14:40:17.458Z,7.87
2019-04-01T14:43:25.715Z,7.30
2019-04-01T14:46:32.966Z,7.87
2019-04-01T14:49:40.585Z,7.20
2019-04-01T14:52:47.958Z,7.43
2019-04-01T14:55:55.471Z,8.23
2019-04-01T14:59:02.644Z,7.37
2019-04-01T15:02:12.776Z,7.60
2019-04-01T15:05:20.927Z,7.93
2019-04-01T15:08:28.254Z,7.23
2019-04-01T15:11:35.650Z,7.63
2019-04-01T15:14:43.170Z,7.47
2019-04-01T15:20:59.308Z,8.10
2019-04-01T15:24:06.881Z,7.67
2019-04-01T15:27:16.441Z,7.47
2019-04-01T15:30:25.001Z,7.37
2019-04-01T15:33:33.621Z,8.57
2019-04-01T15:36:41.336Z,8.10
2019-04-01T15:39:49.685Z,7.83
2019-04-01T15:42:58.589Z,8.60
2019-04-01T15:46:06.578Z,8.27
2019-04-01T15:49:15.569Z,7.43
2019-04-01T15:52:24.324Z,6.90
2019-04-01T15:58:40.236Z,6.87
2019-04-01T16:04:55.332Z,8.20
2019-04-01T16:11:11.772Z,7.30
2019-04-01T16:14:19.607Z,9.73
2019-04-01T16:17:27.364Z,9.40
2019-04-01T16:23:42.245Z,9.87
2019-04-01T16:26:51.322Z,10.23
2019-04-01T16:33:05.298Z,8.97
2019-04-01T16:36:13.227Z,8.23
2019-04-01T16:39:21.342Z,8.73
2019-04-01T16:42:28.695Z,8.23
2019-04-01T16:45:37.277Z,8.07
2019-04-01T16:48:46.669Z,8.77
2019-04-01T16:51:54.660Z,7.60
2019-04-01T16:55:03.279Z,7.40
2019-04-01T16:58:10.644Z,7.50
2019-04-01T17:01:18.925Z,8.30
2019-04-01T17:04:26.652Z,7.70
2019-04-01T17:07:34.999Z,7.93
2019-04-01T17:10:42.332Z,8.43
2019-04-01T17:13:49.685Z,8.60
2019-04-01T17:16:56.890Z,8.37
2019-04-01T17:20:07.887Z,7.37
2019-04-01T17:23:15.877Z,7.00
2019-04-01T17:26:23.431Z,7.20
2019-04-01T17:29:31.933Z,6.73
2019-04-01T17:32:40.277Z,6.10
2019-04-01T17:35:48.279Z,6.33
2019-04-01T17:45:22.793Z,5.73
2019-04-01T17:48:30.141Z,5.93
2019-04-01T17:51:38.367Z,6.23
2019-04-01T17:54:48.177Z,5.93
2019-04-01T18:01:03.976Z,5.10
2019-04-01T18:04:11.286Z,5.10
2019-04-01T18:07:20.314Z,4.57
2019-04-01T18:13:37.814Z,4.73
2019-04-01T18:16:45.994Z,4.53
2019-04-01T18:19:53.926Z,5.77
2019-04-01T18:23:01.572Z,4.53
2019-04-01T18:26:09.666Z,5.20
2019-04-01T18:29:18.680Z,5.20
2019-04-01T18:32:27.633Z,4.80
2019-04-01T18:35:35.368Z,5.10
2019-04-01T18:38:42.672Z,4.77
2019-04-01T18:41:52.982Z,5.27
2019-04-01T18:45:00.265Z,5.13
2019-04-01T18:48:09.270Z,5.10
2019-04-01T18:51:20.177Z,5.13
2019-04-01T18:54:26.058Z,4.73
2019-04-01T18:57:33.523Z,7.07
2019-04-01T19:00:41.300Z,6.80
2019-04-01T19:03:48.891Z,7.40
2019-04-01T19:06:56.296Z,7.47
2019-04-01T19:10:06.338Z,7.60
2019-04-01T19:13:14.460Z,5.43
2019-04-01T19:16:23.132Z,5.23
2019-04-01T19:19:31.092Z,5.13
2019-04-01T19:22:38.714Z,5.03
2019-04-01T19:25:46.273Z,5.83
2019-04-01T19:28:53.528Z,4.57
2019-04-01T19:32:02.585Z,4.90
2019-04-01T19:35:12.530Z,6.13
2019-04-01T19:38:21.307Z,6.90
2019-04-01T19:41:29.321Z,6.67
2019-04-01T19:47:43.402Z,5.63
2019-04-01T19:50:50.518Z,6.13
2019-04-01T19:53:59.504Z,5.77
2019-04-01T19:57:06.474Z,5.70
2019-04-01T20:00:27.026Z,6.27
2019-04-01T20:03:24.543Z,5.60
2019-04-01T20:06:35.460Z,5.70
2019-04-01T20:09:46.099Z,6.20
2019-04-01T20:12:53.011Z,6.43
2019-04-01T20:16:01.469Z,6.27
2019-04-01T20:19:09.008Z,6.00
2019-04-01T20:22:16.430Z,5.77
2019-04-01T20:25:24.752Z,5.77
2019-04-01T20:28:32.758Z,5.70
2019-04-01T20:31:40.675Z,5.57
2019-04-01T20:34:56.949Z,5.87
2019-04-01T20:37:57.352Z,5.33
2019-04-01T20:41:07.286Z,5.43
2019-04-01T20:44:14.896Z,5.20
2019-04-01T20:47:22.293Z,5.97
2019-04-01T20:50:29.913Z,5.40
2019-04-01T20:53:37.286Z,5.73
2019-04-01T20:56:44.274Z,5.50
2019-04-01T20:59:52.252Z,5.60
2019-04-01T21:03:01.297Z,6.30
2019-04-01T21:06:08.310Z,6.47
2019-04-01T21:12:24.348Z,7.93
2019-04-01T21:18:38.942Z,7.83
2019-04-01T21:21:46.658Z,7.50
2019-04-01T21:24:55.256Z,7.10
2019-04-01T21:28:02.760Z,7.23
2019-04-01T21:31:10.360Z,6.03
2019-04-01T21:34:17.964Z,7.07
2019-04-01T21:37:25.366Z,5.60
2019-04-01T21:40:32.569Z,6.77
2019-04-01T21:43:39.750Z,6.43
2019-04-01T21:46:47.023Z,6.43
2019-04-01T21:49:54.294Z,5.87
2019-04-01T21:53:02.184Z,6.00
2019-04-01T21:56:10.418Z,6.33
2019-04-01T21:59:18.068Z,5.55
2019-04-01T22:02:35.583Z,6.17
2019-04-01T22:05:34.074Z,5.67
2019-04-01T22:08:41.334Z,6.60
2019-04-01T22:11:49.260Z,7.20
2019-04-01T22:14:56.421Z,6.35
2019-04-01T22:18:03.495Z,5.60
2019-04-01T22:21:11.605Z,6.83
2019-04-01T22:24:19.496Z,7.33
2019-04-01T22:30:33.339Z,10.33
2019-04-01T22:33:40.668Z,8.90
2019-04-01T22:36:47.739Z,6.53
2019-04-01T22:39:55.115Z,6.30
2019-04-01T22:43:02.313Z,5.80
2019-04-01T22:46:09.406Z,5.37
2019-04-01T22:49:16.605Z,4.97
2019-04-01T22:52:23.528Z,4.37
2019-04-01T22:55:30.735Z,4.53
2019-04-01T22:58:37.939Z,5.00
2019-04-01T23:01:45.352Z,4.37
2019-04-01T23:04:52.967Z,4.57
2019-04-01T23:08:02.248Z,4.03
2019-04-01T23:14:16.295Z,4.40
2019-04-01T23:17:24.355Z,4.37
2019-04-01T23:20:33.291Z,5.00
2019-04-01T23:23:40.327Z,4.13
2019-04-01T23:29:54.026Z,3.77
2019-04-01T23:33:01.302Z,3.63
2019-04-01T23:36:08.280Z,3.77
2019-04-01T23:39:15.539Z,3.60
2019-04-01T23:42:22.904Z,2.93
2019-04-01T23:45:30.301Z,3.37
2019-04-01T23:48:38.257Z,3.67
2019-04-01T23:51:45.281Z,3.10
2019-04-01T23:54:52.300Z,3.77
